UASP

Details ICAO UASP (PWQ)
Name PAVLODAR
Region Kazakhstan and Kyrgyzstan
Timezone Asia/Almaty (UTC+6.0)
Plans Departing 23
Arriving 26
Stats Elevation 410 ft / 125 m (AMSL)
Location 52.194900° 77.074000°
Runways 1
Magnetic Variation 9.287° E
Sunrise 2019-05-19 22:52:02 UTC / 2019-05-20 04:52:02 Local
Sunset 2019-05-20 14:47:13 UTC / 2019-05-20 20:47:13 Local
Advertisement - Login to hide

Runways

ID Width Length Bearing (true/mag) Surface Threshold Overrun Markings Lighting
03 148 ft / 45 m 8,145 ft / 2,483 m 42.75° / 33.46° CONCRETE 0 ft / 0 m 0 ft / 0 m APP EDGE THRESHOLD SALS
21 148 ft / 45 m 8,145 ft / 2,483 m 222.77° / 213.48° CONCRETE 0 ft / 0 m 0 ft / 0 m APP EDGE THRESHOLD SALS

Map

Weather


0- 5 10 15 20 25 30 35+ Temperature / °C

Clouds and Precipitation
Forecast for 2019-05-20 18:00 UTC. Updated 37 minutes ago

Ground ~20,000 ft ~40,000 ft Winds

METAR

UASP 201600Z 35008MPS 9999 VCTS OVC039CB 11/01 Q1003 R21/0///70 NOSIG RMK QFE741/0988

TAF

Not found

Frequencies

Tower 119.80 MHz
Warning: Do not use this data for real-world aviation or navigation. No guarantee of current accuracy is given.